sensor_id;sensor_type;location;lat;lon;timestamp;P1;durP1;ratioP1;P2;durP2;ratioP2
6739;SDS011;3407;49.882;10.920;2023-04-09T00:00:48;19.57;;;12.50;;
6739;SDS011;3407;49.882;10.920;2023-04-09T00:05:43;24.00;;;14.50;;
6739;SDS011;3407;49.882;10.920;2023-04-09T00:10:39;26.17;;;14.17;;
6739;SDS011;3407;49.882;10.920;2023-04-09T00:15:35;22.07;;;14.20;;
6739;SDS011;3407;49.882;10.920;2023-04-09T00:20:30;21.27;;;13.30;;
6739;SDS011;3407;49.882;10.920;2023-04-09T00:25:26;20.73;;;13.53;;
6739;SDS011;3407;49.882;10.920;2023-04-09T00:30:22;20.37;;;13.43;;
6739;SDS011;3407;49.882;10.920;2023-04-09T00:35:18;21.37;;;13.40;;
6739;SDS011;3407;49.882;10.920;2023-04-09T00:40:14;20.53;;;13.10;;
6739;SDS011;3407;49.882;10.920;2023-04-09T00:45:10;24.37;;;13.37;;
6739;SDS011;3407;49.882;10.920;2023-04-09T00:50:05;20.43;;;13.97;;
6739;SDS011;3407;49.882;10.920;2023-04-09T00:55:02;24.50;;;15.37;;
6739;SDS011;3407;49.882;10.920;2023-04-09T01:00:00;23.40;;;14.50;;
6739;SDS011;3407;49.882;10.920;2023-04-09T01:04:55;24.33;;;14.83;;
6739;SDS011;3407;49.882;10.920;2023-04-09T01:10:00;21.40;;;14.07;;
6739;SDS011;3407;49.882;10.920;2023-04-09T01:15:07;20.77;;;13.53;;
6739;SDS011;3407;49.882;10.920;2023-04-09T01:25:08;19.43;;;12.27;;
6739;SDS011;3407;49.882;10.920;2023-04-09T01:30:27;19.33;;;13.50;;
6739;SDS011;3407;49.882;10.920;2023-04-09T01:35:23;23.50;;;14.10;;
6739;SDS011;3407;49.882;10.920;2023-04-09T01:40:21;21.47;;;13.07;;
6739;SDS011;3407;49.882;10.920;2023-04-09T01:45:16;21.80;;;13.33;;
6739;SDS011;3407;49.882;10.920;2023-04-09T01:50:12;17.70;;;12.80;;
6739;SDS011;3407;49.882;10.920;2023-04-09T01:55:08;20.27;;;12.73;;
6739;SDS011;3407;49.882;10.920;2023-04-09T02:00:05;21.90;;;14.17;;
6739;SDS011;3407;49.882;10.920;2023-04-09T02:05:02;22.17;;;13.97;;
6739;SDS011;3407;49.882;10.920;2023-04-09T02:10:01;21.80;;;13.67;;
6739;SDS011;3407;49.882;10.920;2023-04-09T02:14:59;22.27;;;14.57;;
6739;SDS011;3407;49.882;10.920;2023-04-09T02:19:57;22.47;;;13.40;;
6739;SDS011;3407;49.882;10.920;2023-04-09T02:24:52;24.07;;;13.93;;
6739;SDS011;3407;49.882;10.920;2023-04-09T02:29:48;20.77;;;13.47;;
6739;SDS011;3407;49.882;10.920;2023-04-09T02:34:44;23.63;;;14.60;;
6739;SDS011;3407;49.882;10.920;2023-04-09T02:39:40;24.33;;;15.00;;
6739;SDS011;3407;49.882;10.920;2023-04-09T02:44:35;22.70;;;14.00;;
6739;SDS011;3407;49.882;10.920;2023-04-09T02:49:31;23.43;;;14.27;;
6739;SDS011;3407;49.882;10.920;2023-04-09T02:54:26;23.30;;;14.10;;
6739;SDS011;3407;49.882;10.920;2023-04-09T02:59:22;24.63;;;13.03;;
6739;SDS011;3407;49.882;10.920;2023-04-09T03:04:17;22.27;;;13.70;;
6739;SDS011;3407;49.882;10.920;2023-04-09T03:09:13;20.63;;;13.23;;
6739;SDS011;3407;49.882;10.920;2023-04-09T03:14:08;18.77;;;12.40;;
6739;SDS011;3407;49.882;10.920;2023-04-09T03:19:04;21.57;;;13.60;;
6739;SDS011;3407;49.882;10.920;2023-04-09T03:23:59;22.77;;;13.87;;
6739;SDS011;3407;49.882;10.920;2023-04-09T03:28:56;27.57;;;14.63;;
6739;SDS011;3407;49.882;10.920;2023-04-09T03:33:51;35.70;;;18.40;;
6739;SDS011;3407;49.882;10.920;2023-04-09T03:38:47;18.20;;;12.77;;
6739;SDS011;3407;49.882;10.920;2023-04-09T03:43:42;23.70;;;13.87;;
6739;SDS011;3407;49.882;10.920;2023-04-09T03:48:38;30.53;;;16.27;;
6739;SDS011;3407;49.882;10.920;2023-04-09T03:53:33;22.47;;;12.97;;
6739;SDS011;3407;49.882;10.920;2023-04-09T03:58:29;18.87;;;12.43;;
6739;SDS011;3407;49.882;10.920;2023-04-09T04:03:24;15.70;;;10.43;;
6739;SDS011;3407;49.882;10.920;2023-04-09T04:08:20;18.67;;;11.87;;
6739;SDS011;3407;49.882;10.920;2023-04-09T04:13:15;17.27;;;10.53;;
6739;SDS011;3407;49.882;10.920;2023-04-09T04:18:11;17.33;;;10.40;;
6739;SDS011;3407;49.882;10.920;2023-04-09T04:23:06;17.00;;;10.73;;
6739;SDS011;3407;49.882;10.920;2023-04-09T04:28:02;16.00;;;10.73;;
6739;SDS011;3407;49.882;10.920;2023-04-09T04:32:57;15.80;;;10.50;;
6739;SDS011;3407;49.882;10.920;2023-04-09T04:37:53;15.03;;;10.20;;
6739;SDS011;3407;49.882;10.920;2023-04-09T04:42:48;17.77;;;11.00;;
6739;SDS011;3407;49.882;10.920;2023-04-09T04:47:44;18.37;;;11.23;;
6739;SDS011;3407;49.882;10.920;2023-04-09T04:52:40;19.03;;;11.33;;
6739;SDS011;3407;49.882;10.920;2023-04-09T04:57:35;14.77;;;10.03;;
6739;SDS011;3407;49.882;10.920;2023-04-09T05:02:31;16.23;;;10.60;;
6739;SDS011;3407;49.882;10.920;2023-04-09T05:07:26;14.27;;;10.50;;
6739;SDS011;3407;49.882;10.920;2023-04-09T05:12:21;16.77;;;10.60;;
6739;SDS011;3407;49.882;10.920;2023-04-09T05:17:17;18.37;;;10.67;;
6739;SDS011;3407;49.882;10.920;2023-04-09T05:22:13;15.73;;;9.67;;
6739;SDS011;3407;49.882;10.920;2023-04-09T05:27:08;14.70;;;9.43;;
6739;SDS011;3407;49.882;10.920;2023-04-09T05:32:04;16.13;;;9.23;;
6739;SDS011;3407;49.882;10.920;2023-04-09T05:37:00;20.03;;;11.97;;
6739;SDS011;3407;49.882;10.920;2023-04-09T05:41:56;20.50;;;12.00;;
6739;SDS011;3407;49.882;10.920;2023-04-09T05:46:51;19.80;;;11.10;;
6739;SDS011;3407;49.882;10.920;2023-04-09T05:51:48;16.80;;;10.57;;
6739;SDS011;3407;49.882;10.920;2023-04-09T05:56:44;14.67;;;10.10;;
6739;SDS011;3407;49.882;10.920;2023-04-09T06:01:40;13.80;;;10.20;;
6739;SDS011;3407;49.882;10.920;2023-04-09T06:06:38;15.70;;;11.63;;
6739;SDS011;3407;49.882;10.920;2023-04-09T06:11:34;12.50;;;10.63;;
6739;SDS011;3407;49.882;10.920;2023-04-09T06:16:30;15.93;;;11.37;;
6739;SDS011;3407;49.882;10.920;2023-04-09T06:21:27;15.47;;;12.00;;
6739;SDS011;3407;49.882;10.920;2023-04-09T06:26:22;14.33;;;11.07;;
6739;SDS011;3407;49.882;10.920;2023-04-09T06:31:18;12.57;;;10.67;;
6739;SDS011;3407;49.882;10.920;2023-04-09T06:36:14;12.53;;;10.67;;
6739;SDS011;3407;49.882;10.920;2023-04-09T06:41:09;13.73;;;10.47;;
6739;SDS011;3407;49.882;10.920;2023-04-09T06:46:06;15.00;;;12.47;;
6739;SDS011;3407;49.882;10.920;2023-04-09T06:51:02;14.53;;;12.40;;
6739;SDS011;3407;49.882;10.920;2023-04-09T06:55:58;14.07;;;11.47;;
6739;SDS011;3407;49.882;10.920;2023-04-09T07:00:53;13.47;;;11.80;;
6739;SDS011;3407;49.882;10.920;2023-04-09T07:05:49;16.63;;;13.13;;
6739;SDS011;3407;49.882;10.920;2023-04-09T07:10:45;13.20;;;11.80;;
6739;SDS011;3407;49.882;10.920;2023-04-09T07:15:41;13.23;;;11.33;;
6739;SDS011;3407;49.882;10.920;2023-04-09T07:20:37;14.27;;;11.60;;
6739;SDS011;3407;49.882;10.920;2023-04-09T07:25:32;13.27;;;11.87;;
6739;SDS011;3407;49.882;10.920;2023-04-09T07:30:28;15.70;;;12.93;;
6739;SDS011;3407;49.882;10.920;2023-04-09T07:35:23;12.73;;;11.37;;
6739;SDS011;3407;49.882;10.920;2023-04-09T07:40:19;14.50;;;11.87;;
6739;SDS011;3407;49.882;10.920;2023-04-09T07:45:15;15.17;;;12.30;;
6739;SDS011;3407;49.882;10.920;2023-04-09T07:50:11;12.43;;;11.13;;
6739;SDS011;3407;49.882;10.920;2023-04-09T07:55:06;12.13;;;10.82;;
6739;SDS011;3407;49.882;10.920;2023-04-09T08:00:02;12.45;;;11.02;;
6739;SDS011;3407;49.882;10.920;2023-04-09T08:04:59;13.52;;;12.13;;
6739;SDS011;3407;49.882;10.920;2023-04-09T08:09:54;12.00;;;10.73;;
6739;SDS011;3407;49.882;10.920;2023-04-09T08:14:50;12.10;;;10.90;;
6739;SDS011;3407;49.882;10.920;2023-04-09T08:19:46;13.53;;;11.17;;
6739;SDS011;3407;49.882;10.920;2023-04-09T08:24:43;12.20;;;10.53;;
6739;SDS011;3407;49.882;10.920;2023-04-09T08:29:38;11.32;;;10.13;;
6739;SDS011;3407;49.882;10.920;2023-04-09T08:34:36;13.20;;;11.90;;
6739;SDS011;3407;49.882;10.920;2023-04-09T08:39:31;11.63;;;10.43;;
6739;SDS011;3407;49.882;10.920;2023-04-09T08:44:28;10.82;;;9.75;;
6739;SDS011;3407;49.882;10.920;2023-04-09T08:49:23;11.27;;;9.95;;
6739;SDS011;3407;49.882;10.920;2023-04-09T08:54:19;10.32;;;9.30;;
6739;SDS011;3407;49.882;10.920;2023-04-09T08:59:15;10.27;;;9.18;;
6739;SDS011;3407;49.882;10.920;2023-04-09T09:04:12;8.93;;;8.00;;
6739;SDS011;3407;49.882;10.920;2023-04-09T09:09:11;10.00;;;9.00;;
6739;SDS011;3407;49.882;10.920;2023-04-09T09:14:11;9.10;;;6.70;;
6739;SDS011;3407;49.882;10.920;2023-04-09T09:24:18;8.83;;;7.70;;
6739;SDS011;3407;49.882;10.920;2023-04-09T09:29:14;7.30;;;6.60;;
6739;SDS011;3407;49.882;10.920;2023-04-09T09:34:10;6.78;;;6.13;;
6739;SDS011;3407;49.882;10.920;2023-04-09T09:39:06;7.50;;;6.53;;
6739;SDS011;3407;49.882;10.920;2023-04-09T09:44:06;8.32;;;7.53;;
6739;SDS011;3407;49.882;10.920;2023-04-09T09:49:04;8.13;;;7.33;;
6739;SDS011;3407;49.882;10.920;2023-04-09T09:54:00;8.00;;;6.73;;
6739;SDS011;3407;49.882;10.920;2023-04-09T09:59:00;9.07;;;7.67;;
6739;SDS011;3407;49.882;10.920;2023-04-09T10:03:59;6.83;;;6.13;;
6739;SDS011;3407;49.882;10.920;2023-04-09T10:08:55;7.20;;;6.47;;
6739;SDS011;3407;49.882;10.920;2023-04-09T10:13:55;7.43;;;6.30;;
6739;SDS011;3407;49.882;10.920;2023-04-09T10:18:53;8.57;;;6.77;;
6739;SDS011;3407;49.882;10.920;2023-04-09T10:23:50;7.13;;;6.17;;
6739;SDS011;3407;49.882;10.920;2023-04-09T10:28:50;6.70;;;6.00;;
6739;SDS011;3407;49.882;10.920;2023-04-09T10:34:03;6.80;;;5.40;;
6739;SDS011;3407;49.882;10.920;2023-04-09T10:38:59;8.07;;;7.20;;
6739;SDS011;3407;49.882;10.920;2023-04-09T10:44:06;8.20;;;6.57;;
6739;SDS011;3407;49.882;10.920;2023-04-09T10:59:28;7.20;;;6.40;;
6739;SDS011;3407;49.882;10.920;2023-04-09T11:04:25;6.53;;;5.90;;
6739;SDS011;3407;49.882;10.920;2023-04-09T11:09:37;6.93;;;6.23;;
6739;SDS011;3407;49.882;10.920;2023-04-09T11:14:32;8.93;;;6.33;;
6739;SDS011;3407;49.882;10.920;2023-04-09T11:19:28;7.80;;;6.47;;
6739;SDS011;3407;49.882;10.920;2023-04-09T11:24:23;7.10;;;5.60;;
6739;SDS011;3407;49.882;10.920;2023-04-09T11:29:21;7.50;;;5.77;;
6739;SDS011;3407;49.882;10.920;2023-04-09T11:34:17;7.67;;;5.83;;
6739;SDS011;3407;49.882;10.920;2023-04-09T11:39:12;7.33;;;5.90;;
6739;SDS011;3407;49.882;10.920;2023-04-09T11:44:08;7.63;;;6.13;;
6739;SDS011;3407;49.882;10.920;2023-04-09T11:49:04;6.40;;;5.47;;
6739;SDS011;3407;49.882;10.920;2023-04-09T11:54:00;5.63;;;4.80;;
6739;SDS011;3407;49.882;10.920;2023-04-09T11:58:59;5.23;;;4.33;;
6739;SDS011;3407;49.882;10.920;2023-04-09T12:03:55;7.03;;;5.20;;
6739;SDS011;3407;49.882;10.920;2023-04-09T12:08:57;6.17;;;5.20;;
6739;SDS011;3407;49.882;10.920;2023-04-09T12:13:59;5.63;;;5.03;;
6739;SDS011;3407;49.882;10.920;2023-04-09T12:19:04;6.07;;;4.77;;
6739;SDS011;3407;49.882;10.920;2023-04-09T12:24:00;5.67;;;4.53;;
6739;SDS011;3407;49.882;10.920;2023-04-09T12:28:56;4.97;;;4.47;;
6739;SDS011;3407;49.882;10.920;2023-04-09T12:33:51;5.53;;;4.70;;
6739;SDS011;3407;49.882;10.920;2023-04-09T12:38:47;5.37;;;4.87;;
6739;SDS011;3407;49.882;10.920;2023-04-09T12:43:42;4.97;;;4.43;;
6739;SDS011;3407;49.882;10.920;2023-04-09T12:48:38;5.43;;;4.13;;
6739;SDS011;3407;49.882;10.920;2023-04-09T12:53:33;3.90;;;3.60;;
6739;SDS011;3407;49.882;10.920;2023-04-09T12:58:29;4.33;;;3.80;;
6739;SDS011;3407;49.882;10.920;2023-04-09T13:03:25;4.50;;;3.33;;
6739;SDS011;3407;49.882;10.920;2023-04-09T13:08:21;3.93;;;3.23;;
6739;SDS011;3407;49.882;10.920;2023-04-09T13:13:16;4.13;;;3.73;;
6739;SDS011;3407;49.882;10.920;2023-04-09T13:18:12;6.10;;;4.27;;
6739;SDS011;3407;49.882;10.920;2023-04-09T13:23:08;4.00;;;3.60;;
6739;SDS011;3407;49.882;10.920;2023-04-09T13:28:03;4.23;;;3.83;;
6739;SDS011;3407;49.882;10.920;2023-04-09T13:32:59;4.30;;;3.90;;
6739;SDS011;3407;49.882;10.920;2023-04-09T13:37:54;4.50;;;4.10;;
6739;SDS011;3407;49.882;10.920;2023-04-09T13:42:50;4.80;;;3.70;;
6739;SDS011;3407;49.882;10.920;2023-04-09T13:47:45;4.40;;;4.00;;
6739;SDS011;3407;49.882;10.920;2023-04-09T13:52:41;4.90;;;4.40;;
6739;SDS011;3407;49.882;10.920;2023-04-09T13:57:36;5.63;;;4.50;;
6739;SDS011;3407;49.882;10.920;2023-04-09T14:02:32;4.20;;;3.77;;
6739;SDS011;3407;49.882;10.920;2023-04-09T14:07:27;4.67;;;4.20;;
6739;SDS011;3407;49.882;10.920;2023-04-09T14:12:23;4.63;;;4.20;;
6739;SDS011;3407;49.882;10.920;2023-04-09T14:17:18;5.50;;;4.20;;
6739;SDS011;3407;49.882;10.920;2023-04-09T14:22:14;4.90;;;4.40;;
6739;SDS011;3407;49.882;10.920;2023-04-09T14:27:10;5.30;;;4.57;;
6739;SDS011;3407;49.882;10.920;2023-04-09T14:32:06;5.07;;;4.57;;
6739;SDS011;3407;49.882;10.920;2023-04-09T14:37:01;5.40;;;4.80;;
6739;SDS011;3407;49.882;10.920;2023-04-09T14:41:57;5.23;;;4.73;;
6739;SDS011;3407;49.882;10.920;2023-04-09T14:46:52;4.97;;;4.53;;
6739;SDS011;3407;49.882;10.920;2023-04-09T14:51:48;6.33;;;5.13;;
6739;SDS011;3407;49.882;10.920;2023-04-09T14:56:44;4.83;;;4.37;;
6739;SDS011;3407;49.882;10.920;2023-04-09T15:01:40;6.10;;;4.70;;
6739;SDS011;3407;49.882;10.920;2023-04-09T15:06:35;5.87;;;4.93;;
6739;SDS011;3407;49.882;10.920;2023-04-09T15:11:31;4.53;;;4.13;;
6739;SDS011;3407;49.882;10.920;2023-04-09T15:16:26;5.07;;;4.57;;
6739;SDS011;3407;49.882;10.920;2023-04-09T15:21:22;6.33;;;4.93;;
6739;SDS011;3407;49.882;10.920;2023-04-09T15:26:18;4.87;;;3.70;;
6739;SDS011;3407;49.882;10.920;2023-04-09T15:31:14;4.53;;;4.10;;
6739;SDS011;3407;49.882;10.920;2023-04-09T15:36:10;5.13;;;4.63;;
6739;SDS011;3407;49.882;10.920;2023-04-09T15:41:06;7.33;;;5.10;;
6739;SDS011;3407;49.882;10.920;2023-04-09T15:46:08;5.73;;;4.60;;
6739;SDS011;3407;49.882;10.920;2023-04-09T15:51:04;5.70;;;4.37;;
6739;SDS011;3407;49.882;10.920;2023-04-09T15:56:00;6.33;;;5.03;;
6739;SDS011;3407;49.882;10.920;2023-04-09T16:00:57;5.57;;;4.57;;
6739;SDS011;3407;49.882;10.920;2023-04-09T16:05:52;5.10;;;4.03;;
6739;SDS011;3407;49.882;10.920;2023-04-09T16:10:48;6.43;;;5.47;;
6739;SDS011;3407;49.882;10.920;2023-04-09T16:15:43;5.23;;;4.40;;
6739;SDS011;3407;49.882;10.920;2023-04-09T16:20:40;4.73;;;4.23;;
6739;SDS011;3407;49.882;10.920;2023-04-09T16:25:36;4.97;;;4.43;;
6739;SDS011;3407;49.882;10.920;2023-04-09T16:30:31;6.13;;;4.70;;
6739;SDS011;3407;49.882;10.920;2023-04-09T16:35:27;5.13;;;4.07;;
6739;SDS011;3407;49.882;10.920;2023-04-09T16:40:22;6.93;;;4.80;;
6739;SDS011;3407;49.882;10.920;2023-04-09T16:45:18;4.90;;;4.13;;
6739;SDS011;3407;49.882;10.920;2023-04-09T16:50:14;6.20;;;4.97;;
6739;SDS011;3407;49.882;10.920;2023-04-09T16:55:09;6.10;;;4.90;;
6739;SDS011;3407;49.882;10.920;2023-04-09T17:00:05;7.60;;;4.77;;
6739;SDS011;3407;49.882;10.920;2023-04-09T17:05:01;6.27;;;5.30;;
6739;SDS011;3407;49.882;10.920;2023-04-09T17:09:58;6.47;;;5.07;;
6739;SDS011;3407;49.882;10.920;2023-04-09T17:14:53;5.00;;;4.50;;
6739;SDS011;3407;49.882;10.920;2023-04-09T17:19:49;6.00;;;5.20;;
6739;SDS011;3407;49.882;10.920;2023-04-09T17:24:44;8.37;;;6.43;;
6739;SDS011;3407;49.882;10.920;2023-04-09T17:29:40;5.93;;;5.10;;
6739;SDS011;3407;49.882;10.920;2023-04-09T17:34:36;5.20;;;4.70;;
6739;SDS011;3407;49.882;10.920;2023-04-09T17:39:32;5.07;;;4.57;;
6739;SDS011;3407;49.882;10.920;2023-04-09T17:44:29;6.43;;;5.00;;
6739;SDS011;3407;49.882;10.920;2023-04-09T17:49:30;5.00;;;4.37;;
6739;SDS011;3407;49.882;10.920;2023-04-09T17:54:30;5.47;;;4.93;;
6739;SDS011;3407;49.882;10.920;2023-04-09T17:59:27;6.77;;;4.77;;
6739;SDS011;3407;49.882;10.920;2023-04-09T18:04:23;5.90;;;4.80;;
6739;SDS011;3407;49.882;10.920;2023-04-09T18:09:19;4.97;;;4.33;;
6739;SDS011;3407;49.882;10.920;2023-04-09T18:14:14;6.43;;;5.60;;
6739;SDS011;3407;49.882;10.920;2023-04-09T18:19:10;6.90;;;5.27;;
6739;SDS011;3407;49.882;10.920;2023-04-09T18:24:06;7.43;;;5.47;;
6739;SDS011;3407;49.882;10.920;2023-04-09T18:29:01;6.80;;;5.43;;
6739;SDS011;3407;49.882;10.920;2023-04-09T18:33:57;5.97;;;5.20;;
6739;SDS011;3407;49.882;10.920;2023-04-09T18:38:53;7.30;;;5.73;;
6739;SDS011;3407;49.882;10.920;2023-04-09T18:43:48;6.43;;;5.57;;
6739;SDS011;3407;49.882;10.920;2023-04-09T18:48:44;7.63;;;5.93;;
6739;SDS011;3407;49.882;10.920;2023-04-09T18:53:40;6.33;;;5.67;;
6739;SDS011;3407;49.882;10.920;2023-04-09T18:58:36;7.23;;;5.80;;
6739;SDS011;3407;49.882;10.920;2023-04-09T19:03:32;9.40;;;5.40;;
6739;SDS011;3407;49.882;10.920;2023-04-09T19:08:28;7.43;;;5.80;;
6739;SDS011;3407;49.882;10.920;2023-04-09T19:13:31;9.77;;;6.00;;
6739;SDS011;3407;49.882;10.920;2023-04-09T19:18:26;8.37;;;5.80;;
6739;SDS011;3407;49.882;10.920;2023-04-09T19:23:22;8.07;;;5.90;;
6739;SDS011;3407;49.882;10.920;2023-04-09T19:28:17;7.40;;;5.70;;
6739;SDS011;3407;49.882;10.920;2023-04-09T19:33:13;6.77;;;5.57;;
6739;SDS011;3407;49.882;10.920;2023-04-09T19:38:09;8.83;;;6.20;;
6739;SDS011;3407;49.882;10.920;2023-04-09T19:43:04;7.83;;;5.60;;
6739;SDS011;3407;49.882;10.920;2023-04-09T19:48:00;7.60;;;5.33;;
6739;SDS011;3407;49.882;10.920;2023-04-09T19:52:55;11.27;;;6.17;;
6739;SDS011;3407;49.882;10.920;2023-04-09T19:57:51;10.20;;;7.17;;
6739;SDS011;3407;49.882;10.920;2023-04-09T20:02:46;13.93;;;8.93;;
6739;SDS011;3407;49.882;10.920;2023-04-09T20:07:42;7.97;;;6.13;;
6739;SDS011;3407;49.882;10.920;2023-04-09T20:12:39;8.80;;;6.57;;
6739;SDS011;3407;49.882;10.920;2023-04-09T20:17:34;8.17;;;5.70;;
6739;SDS011;3407;49.882;10.920;2023-04-09T20:22:30;8.33;;;6.03;;
6739;SDS011;3407;49.882;10.920;2023-04-09T20:27:26;8.20;;;6.40;;
6739;SDS011;3407;49.882;10.920;2023-04-09T20:32:22;9.83;;;6.23;;
6739;SDS011;3407;49.882;10.920;2023-04-09T20:37:17;8.50;;;6.43;;
6739;SDS011;3407;49.882;10.920;2023-04-09T20:42:13;7.20;;;5.97;;
6739;SDS011;3407;49.882;10.920;2023-04-09T20:47:08;8.53;;;7.07;;
6739;SDS011;3407;49.882;10.920;2023-04-09T20:52:04;9.37;;;6.67;;
6739;SDS011;3407;49.882;10.920;2023-04-09T20:56:59;7.03;;;6.10;;
6739;SDS011;3407;49.882;10.920;2023-04-09T21:01:55;8.33;;;6.80;;
6739;SDS011;3407;49.882;10.920;2023-04-09T21:06:51;9.37;;;7.30;;
6739;SDS011;3407;49.882;10.920;2023-04-09T21:11:46;9.33;;;6.87;;
6739;SDS011;3407;49.882;10.920;2023-04-09T21:16:42;7.70;;;6.60;;
6739;SDS011;3407;49.882;10.920;2023-04-09T21:21:37;7.97;;;6.67;;
6739;SDS011;3407;49.882;10.920;2023-04-09T21:26:33;9.60;;;7.47;;
6739;SDS011;3407;49.882;10.920;2023-04-09T21:31:29;14.43;;;10.73;;
6739;SDS011;3407;49.882;10.920;2023-04-09T21:36:25;11.03;;;8.37;;
6739;SDS011;3407;49.882;10.920;2023-04-09T21:41:21;7.97;;;7.00;;
6739;SDS011;3407;49.882;10.920;2023-04-09T21:46:17;9.83;;;6.83;;
6739;SDS011;3407;49.882;10.920;2023-04-09T21:51:12;8.33;;;6.67;;
6739;SDS011;3407;49.882;10.920;2023-04-09T21:56:08;8.73;;;7.23;;
6739;SDS011;3407;49.882;10.920;2023-04-09T22:01:04;17.30;;;6.87;;
6739;SDS011;3407;49.882;10.920;2023-04-09T22:05:59;8.87;;;6.70;;
6739;SDS011;3407;49.882;10.920;2023-04-09T22:10:55;9.27;;;6.87;;
6739;SDS011;3407;49.882;10.920;2023-04-09T22:15:50;9.83;;;7.40;;
6739;SDS011;3407;49.882;10.920;2023-04-09T22:20:46;10.73;;;7.43;;
6739;SDS011;3407;49.882;10.920;2023-04-09T22:25:41;10.57;;;7.73;;
6739;SDS011;3407;49.882;10.920;2023-04-09T22:30:37;8.60;;;7.13;;
6739;SDS011;3407;49.882;10.920;2023-04-09T22:35:32;9.83;;;6.40;;
6739;SDS011;3407;49.882;10.920;2023-04-09T22:40:28;9.37;;;7.20;;
6739;SDS011;3407;49.882;10.920;2023-04-09T22:45:24;9.30;;;6.57;;
6739;SDS011;3407;49.882;10.920;2023-04-09T22:50:21;12.17;;;7.37;;
6739;SDS011;3407;49.882;10.920;2023-04-09T22:55:20;8.93;;;6.87;;
6739;SDS011;3407;49.882;10.920;2023-04-09T23:00:17;10.93;;;6.80;;
6739;SDS011;3407;49.882;10.920;2023-04-09T23:05:13;7.97;;;6.53;;
6739;SDS011;3407;49.882;10.920;2023-04-09T23:10:08;10.60;;;7.10;;
6739;SDS011;3407;49.882;10.920;2023-04-09T23:15:08;8.90;;;7.10;;
6739;SDS011;3407;49.882;10.920;2023-04-09T23:20:04;11.80;;;7.53;;
6739;SDS011;3407;49.882;10.920;2023-04-09T23:25:02;9.83;;;7.73;;
6739;SDS011;3407;49.882;10.920;2023-04-09T23:29:58;9.23;;;7.77;;
6739;SDS011;3407;49.882;10.920;2023-04-09T23:34:53;10.57;;;7.47;;
6739;SDS011;3407;49.882;10.920;2023-04-09T23:39:51;10.40;;;7.53;;
6739;SDS011;3407;49.882;10.920;2023-04-09T23:44:46;9.93;;;7.47;;
6739;SDS011;3407;49.882;10.920;2023-04-09T23:49:42;10.97;;;7.73;;
6739;SDS011;3407;49.882;10.920;2023-04-09T23:54:45;12.27;;;7.47;;
6739;SDS011;3407;49.882;10.920;2023-04-09T23:59:47;10.23;;;7.80;;
